createdAt,value
2017-11-22T00:00:18.270Z,52.30
2017-11-22T00:02:46.006Z,52.30
2017-11-22T00:05:13.769Z,52.40
2017-11-22T00:07:42.547Z,53.60
2017-11-22T00:10:10.316Z,53.00
2017-11-22T00:12:38.123Z,52.90
2017-11-22T00:15:06.006Z,53.00
2017-11-22T00:17:33.811Z,52.20
2017-11-22T00:20:01.555Z,52.40
2017-11-22T00:22:29.387Z,52.90
2017-11-22T00:24:57.202Z,52.80
2017-11-22T00:27:25.773Z,53.00
2017-11-22T00:29:53.589Z,52.90
2017-11-22T00:32:21.406Z,53.10
2017-11-22T00:34:49.154Z,53.10
2017-11-22T00:37:17.069Z,53.40
2017-11-22T00:39:44.866Z,53.40
2017-11-22T00:42:12.632Z,53.10
2017-11-22T00:44:40.394Z,53.10
2017-11-22T00:47:08.172Z,52.70
2017-11-22T00:49:35.967Z,53.00
2017-11-22T00:52:03.789Z,53.20
2017-11-22T00:54:31.665Z,53.30
2017-11-22T00:56:59.489Z,53.10
2017-11-22T00:59:27.385Z,53.10
2017-11-22T01:01:55.189Z,53.10
2017-11-22T01:04:22.966Z,52.90
2017-11-22T01:06:50.785Z,53.20
2017-11-22T01:09:18.627Z,53.40
2017-11-22T01:11:46.404Z,53.50
2017-11-22T01:14:14.317Z,53.60
2017-11-22T01:16:42.140Z,53.30
2017-11-22T01:19:10.010Z,53.20
2017-11-22T01:21:37.820Z,54.00
2017-11-22T01:24:05.664Z,53.60
2017-11-22T01:26:33.477Z,53.50
2017-11-22T01:29:01.260Z,53.40
2017-11-22T01:31:29.112Z,53.60
2017-11-22T01:33:56.989Z,53.80
2017-11-22T01:36:24.839Z,53.90
2017-11-22T01:38:52.660Z,53.90
2017-11-22T01:41:21.348Z,53.10
2017-11-22T01:43:49.956Z,53.40
2017-11-22T01:46:17.761Z,53.30
2017-11-22T01:48:45.740Z,53.40
2017-11-22T01:51:13.594Z,53.50
2017-11-22T01:53:41.372Z,53.50
2017-11-22T01:56:09.180Z,53.40
2017-11-22T01:58:37.030Z,53.50
2017-11-22T02:01:04.811Z,53.70
2017-11-22T02:03:32.666Z,53.70
2017-11-22T02:06:01.283Z,53.60
2017-11-22T02:08:29.146Z,53.60
2017-11-22T02:10:57.106Z,53.80
2017-11-22T02:13:25.036Z,53.70
2017-11-22T02:15:53.816Z,54.00
2017-11-22T02:18:21.575Z,54.00
2017-11-22T02:20:49.400Z,53.80
2017-11-22T02:23:17.143Z,53.80
2017-11-22T02:25:44.937Z,53.60
2017-11-22T02:28:13.560Z,53.00
2017-11-22T02:30:41.430Z,53.00
2017-11-22T02:33:09.293Z,52.90
2017-11-22T02:35:37.105Z,53.10
2017-11-22T02:38:04.875Z,53.30
2017-11-22T02:40:32.789Z,53.40
2017-11-22T02:43:00.606Z,53.30
2017-11-22T02:45:28.518Z,53.30
2017-11-22T02:47:56.328Z,54.10
2017-11-22T02:50:25.352Z,53.40
2017-11-22T02:52:53.158Z,53.00
2017-11-22T02:55:21.082Z,52.80
2017-11-22T02:57:48.917Z,53.20
2017-11-22T03:00:16.851Z,53.70
2017-11-22T03:02:44.706Z,53.60
2017-11-22T03:05:13.281Z,53.30
2017-11-22T03:07:41.188Z,53.30
2017-11-22T03:10:09.087Z,53.50
2017-11-22T03:12:37.615Z,53.70
2017-11-22T03:15:06.183Z,53.80
2017-11-22T03:17:33.975Z,53.80
2017-11-22T03:20:01.735Z,53.80
2017-11-22T03:22:29.607Z,53.70
2017-11-22T03:24:58.282Z,54.20
2017-11-22T03:27:26.107Z,54.00
2017-11-22T03:29:53.915Z,53.80
2017-11-22T03:32:21.755Z,54.00
2017-11-22T03:34:49.598Z,54.10
2017-11-22T03:37:17.472Z,54.40
2017-11-22T03:39:46.203Z,54.90
2017-11-22T03:42:14.017Z,54.80
2017-11-22T03:44:41.810Z,54.50
2017-11-22T03:47:09.702Z,54.30
2017-11-22T03:49:43.089Z,54.30
2017-11-22T03:52:16.564Z,54.40
2017-11-22T03:54:44.336Z,54.50
2017-11-22T03:57:12.203Z,54.70
2017-11-22T03:59:40.162Z,54.80
2017-11-22T04:02:07.987Z,54.80
2017-11-22T04:04:35.836Z,54.80
2017-11-22T04:07:07.461Z,54.80
2017-11-22T04:09:35.781Z,54.80
2017-11-22T04:12:03.676Z,54.40
2017-11-22T04:14:31.530Z,54.60
2017-11-22T04:17:00.087Z,54.40
2017-11-22T04:19:28.089Z,54.40
2017-11-22T04:21:56.732Z,54.90
2017-11-22T04:24:24.660Z,54.90
2017-11-22T04:26:53.364Z,55.00
2017-11-22T04:29:21.324Z,54.90
2017-11-22T04:31:49.116Z,54.60
2017-11-22T04:34:17.010Z,54.50
2017-11-22T04:36:44.975Z,54.40
2017-11-22T04:39:12.892Z,54.40
2017-11-22T04:41:40.739Z,54.50
2017-11-22T04:44:09.393Z,55.00
2017-11-22T04:46:37.232Z,54.90
2017-11-22T04:49:05.118Z,54.90
2017-11-22T04:51:33.118Z,55.30
2017-11-22T04:54:01.101Z,55.30
2017-11-22T04:56:28.978Z,55.30
2017-11-22T04:58:57.010Z,55.30
2017-11-22T05:01:24.977Z,55.10
2017-11-22T05:03:52.857Z,54.80
2017-11-22T05:06:20.749Z,55.40
2017-11-22T05:08:48.591Z,55.30
2017-11-22T05:11:16.452Z,55.10
2017-11-22T05:13:44.348Z,55.10
2017-11-22T05:16:12.222Z,54.50
2017-11-22T05:18:40.675Z,54.90
2017-11-22T05:21:08.493Z,54.70
2017-11-22T05:23:36.378Z,54.80
2017-11-22T05:26:04.228Z,54.50
2017-11-22T05:28:32.914Z,54.10
2017-11-22T05:31:00.762Z,54.00
2017-11-22T05:33:31.058Z,54.00
2017-11-22T05:36:00.665Z,54.30
2017-11-22T05:38:28.485Z,54.30
2017-11-22T05:48:38.501Z,53.60
2017-11-22T05:51:07.360Z,53.60
2017-11-22T05:53:35.145Z,53.60
2017-11-22T05:56:02.992Z,53.40
2017-11-22T05:58:30.767Z,53.30
2017-11-22T06:00:58.537Z,52.70
2017-11-22T06:03:26.790Z,52.90
2017-11-22T06:05:54.597Z,52.90
2017-11-22T06:08:22.489Z,52.70
2017-11-22T06:10:51.102Z,52.60
2017-11-22T06:13:18.861Z,52.50
2017-11-22T06:15:46.805Z,54.30
2017-11-22T06:18:14.625Z,52.10
2017-11-22T06:20:42.412Z,52.20
2017-11-22T06:23:10.920Z,52.10
2017-11-22T06:25:39.807Z,52.80
2017-11-22T06:28:07.621Z,52.70
2017-11-22T06:30:37.285Z,53.50
2017-11-22T06:33:05.098Z,53.50
2017-11-22T06:35:32.916Z,53.40
2017-11-22T06:38:00.659Z,53.20
2017-11-22T06:40:28.462Z,52.10
2017-11-22T06:42:56.246Z,71.40
2017-11-22T06:45:24.067Z,51.30
2017-11-22T06:47:51.858Z,50.50
2017-11-22T06:50:19.663Z,50.70
2017-11-22T06:52:47.512Z,51.10
2017-11-22T06:55:16.014Z,50.70
2017-11-22T06:57:43.764Z,50.70
2017-11-22T07:00:11.586Z,51.10
2017-11-22T07:02:44.996Z,55.60
2017-11-22T07:05:18.597Z,51.10
2017-11-22T07:07:46.479Z,51.70
2017-11-22T07:10:14.214Z,51.50
2017-11-22T07:12:41.944Z,51.10
2017-11-22T07:15:10.660Z,51.40
2017-11-22T07:17:38.397Z,51.40
2017-11-22T07:20:06.948Z,51.70
2017-11-22T07:22:34.816Z,51.60
2017-11-22T07:25:02.852Z,59.90
2017-11-22T07:27:30.580Z,55.30
2017-11-22T07:29:59.235Z,51.40
2017-11-22T07:32:27.041Z,51.30
2017-11-22T07:34:54.771Z,51.30
2017-11-22T07:37:28.286Z,51.30
2017-11-22T07:39:56.065Z,51.40
2017-11-22T07:42:23.821Z,51.40
2017-11-22T07:44:52.228Z,51.90
2017-11-22T07:47:20.022Z,52.00
2017-11-22T07:49:48.096Z,51.70
2017-11-22T07:52:22.853Z,51.30
2017-11-22T07:54:50.655Z,51.70
2017-11-22T07:57:24.739Z,52.10
2017-11-22T07:59:52.542Z,52.10
2017-11-22T08:02:21.106Z,52.00
2017-11-22T08:04:48.953Z,51.90
2017-11-22T08:07:16.722Z,52.10
2017-11-22T08:09:44.519Z,51.90
2017-11-22T08:12:12.339Z,52.00
2017-11-22T08:14:40.204Z,51.80
2017-11-22T08:17:08.004Z,52.10
2017-11-22T08:19:35.816Z,51.70
2017-11-22T08:22:03.552Z,51.00
2017-11-22T08:24:31.371Z,53.40
2017-11-22T08:26:59.101Z,51.10
2017-11-22T08:29:27.662Z,50.90
2017-11-22T08:31:55.513Z,50.80
2017-11-22T08:34:23.261Z,50.70
2017-11-22T08:36:51.099Z,50.50
2017-11-22T08:39:19.902Z,50.00
2017-11-22T08:41:50.435Z,49.80
2017-11-22T08:44:18.205Z,50.40
2017-11-22T08:46:46.012Z,50.20
2017-11-22T08:49:13.806Z,50.00
2017-11-22T08:51:42.459Z,50.00
2017-11-22T08:54:15.763Z,49.90
2017-11-22T08:56:49.253Z,49.80
2017-11-22T08:59:16.989Z,49.90
2017-11-22T09:01:44.824Z,49.60
2017-11-22T09:04:12.698Z,49.40
2017-11-22T09:06:41.264Z,49.70
2017-11-22T09:09:09.108Z,49.60
2017-11-22T09:11:36.938Z,49.50
2017-11-22T09:14:04.717Z,48.80
2017-11-22T09:16:32.475Z,48.40
2017-11-22T09:19:00.353Z,49.10
2017-11-22T09:21:28.172Z,50.10
2017-11-22T09:23:55.899Z,48.70
2017-11-22T09:26:23.716Z,47.70
2017-11-22T09:28:51.471Z,48.20
2017-11-22T09:31:25.042Z,48.00
2017-11-22T09:33:58.382Z,48.20
2017-11-22T09:36:27.959Z,47.80
2017-11-22T09:38:55.795Z,47.80
2017-11-22T09:41:23.535Z,47.60
2017-11-22T09:43:52.062Z,48.00
2017-11-22T09:46:19.898Z,47.40
2017-11-22T09:48:47.688Z,47.30
2017-11-22T09:51:15.576Z,47.40
2017-11-22T09:53:43.405Z,48.20
2017-11-22T09:56:11.134Z,47.60
2017-11-22T09:58:39.018Z,47.50
2017-11-22T10:01:06.813Z,48.00
2017-11-22T10:03:34.621Z,47.90
2017-11-22T10:06:02.364Z,48.10
2017-11-22T10:08:30.159Z,48.40
2017-11-22T10:10:57.904Z,47.80
2017-11-22T10:13:25.660Z,47.00
2017-11-22T10:15:53.388Z,46.90
2017-11-22T10:18:28.783Z,47.00
2017-11-22T10:20:56.655Z,47.00
2017-11-22T10:23:28.253Z,51.70
2017-11-22T10:25:58.459Z,45.50
2017-11-22T10:28:26.375Z,47.50
2017-11-22T10:30:54.915Z,45.70
2017-11-22T10:33:28.268Z,45.70
2017-11-22T10:35:56.111Z,45.50
2017-11-22T10:38:23.861Z,45.80
2017-11-22T10:40:51.744Z,55.80
2017-11-22T10:43:19.547Z,53.90
2017-11-22T10:45:47.386Z,53.60
2017-11-22T10:48:15.302Z,50.70
2017-11-22T10:50:43.075Z,42.30
2017-11-22T10:53:10.915Z,42.30
2017-11-22T10:55:38.705Z,44.40
2017-11-22T10:58:06.549Z,51.90
2017-11-22T11:00:34.373Z,42.20
2017-11-22T11:03:02.167Z,43.00
2017-11-22T11:05:29.995Z,45.90
2017-11-22T11:07:57.799Z,43.60
2017-11-22T11:10:26.416Z,45.30
2017-11-22T11:12:54.229Z,45.20
2017-11-22T11:15:21.982Z,45.70
2017-11-22T11:17:49.743Z,46.10
2017-11-22T11:20:17.544Z,45.40
2017-11-22T11:22:46.050Z,45.50
2017-11-22T11:25:13.771Z,45.20
2017-11-22T11:27:41.499Z,45.00
2017-11-22T11:30:09.223Z,45.20
2017-11-22T11:32:37.014Z,46.00
2017-11-22T11:35:04.804Z,46.70
2017-11-22T11:37:32.618Z,48.20
2017-11-22T11:40:00.480Z,47.30
2017-11-22T11:42:28.259Z,46.90
2017-11-22T11:44:56.001Z,46.60
2017-11-22T11:47:23.760Z,54.90
2017-11-22T11:49:51.499Z,49.80
2017-11-22T11:52:19.299Z,53.40
2017-11-22T11:54:47.228Z,50.90
2017-11-22T11:57:15.048Z,44.30
2017-11-22T11:59:42.883Z,50.00
2017-11-22T12:02:10.821Z,44.10
2017-11-22T12:04:39.386Z,45.40
2017-11-22T12:07:07.272Z,45.30
2017-11-22T12:09:35.858Z,46.90
2017-11-22T12:12:07.484Z,46.70
2017-11-22T12:14:35.274Z,51.30
2017-11-22T12:17:03.075Z,45.10
2017-11-22T12:19:30.860Z,49.20
2017-11-22T12:22:04.454Z,53.20
2017-11-22T12:24:32.384Z,46.20
2017-11-22T12:27:00.945Z,52.40
2017-11-22T12:29:31.436Z,52.30
2017-11-22T12:31:59.192Z,44.10
2017-11-22T12:34:26.936Z,44.90
2017-11-22T12:36:54.768Z,50.40
2017-11-22T12:39:22.548Z,52.10
2017-11-22T12:41:50.353Z,49.90
2017-11-22T12:44:18.976Z,44.10
2017-11-22T12:46:46.725Z,44.90
2017-11-22T12:49:14.612Z,46.10
2017-11-22T12:51:42.522Z,50.00
2017-11-22T12:54:10.334Z,53.60
2017-11-22T12:56:38.155Z,53.00
2017-11-22T12:59:06.425Z,48.40
2017-11-22T13:01:34.183Z,52.10
2017-11-22T13:04:02.062Z,47.30
2017-11-22T13:06:29.965Z,47.90
2017-11-22T13:08:58.551Z,48.00
2017-11-22T13:24:46.670Z,48.40
2017-11-22T13:27:19.152Z,51.30
2017-11-22T13:29:46.978Z,51.20
2017-11-22T13:32:21.519Z,50.20
2017-11-22T13:34:49.417Z,43.80
2017-11-22T13:37:18.082Z,47.80
2017-11-22T13:39:46.000Z,47.60
2017-11-22T13:42:13.964Z,49.00
2017-11-22T13:44:41.870Z,49.80
2017-11-22T13:47:09.816Z,49.90
2017-11-22T13:49:37.691Z,49.70
2017-11-22T13:52:05.551Z,49.40
2017-11-22T13:54:33.434Z,49.60
2017-11-22T13:57:01.277Z,49.60
2017-11-22T13:59:29.212Z,43.20
2017-11-22T14:01:57.074Z,48.30
2017-11-22T14:04:24.983Z,47.60
2017-11-22T14:06:52.787Z,48.80
2017-11-22T14:09:20.560Z,42.80
2017-11-22T14:11:49.383Z,47.80
2017-11-22T14:14:17.188Z,47.80
2017-11-22T14:16:45.015Z,47.90
2017-11-22T14:19:12.990Z,47.70
2017-11-22T14:21:40.848Z,48.90
2017-11-22T14:24:08.780Z,41.70
2017-11-22T14:26:36.626Z,42.10
2017-11-22T14:29:04.516Z,49.90
2017-11-22T14:31:33.238Z,46.50
2017-11-22T14:34:01.087Z,46.50
2017-11-22T14:36:28.885Z,47.60
2017-11-22T14:38:56.767Z,44.20
2017-11-22T14:41:24.662Z,47.60
2017-11-22T14:43:53.393Z,42.40
2017-11-22T14:46:21.214Z,42.40
2017-11-22T14:48:49.074Z,43.50
2017-11-22T14:51:17.059Z,44.90
2017-11-22T14:53:44.940Z,45.40
2017-11-22T14:56:12.746Z,45.90
2017-11-22T14:58:40.734Z,46.40
2017-11-22T15:01:08.657Z,47.20
2017-11-22T15:03:36.478Z,49.60
2017-11-22T15:06:04.342Z,47.80
2017-11-22T15:08:32.214Z,48.00
2017-11-22T15:11:00.063Z,48.40
2017-11-22T15:13:27.857Z,49.50
2017-11-22T15:15:55.688Z,52.80
2017-11-22T15:18:23.567Z,47.10
2017-11-22T15:20:51.440Z,46.00
2017-11-22T15:23:19.309Z,46.40
2017-11-22T15:25:48.539Z,47.00
2017-11-22T15:28:16.421Z,48.60
2017-11-22T15:30:44.184Z,48.20
2017-11-22T15:33:11.997Z,48.60
2017-11-22T15:35:39.923Z,49.10
2017-11-22T15:38:07.846Z,49.40
2017-11-22T15:40:35.620Z,49.70
2017-11-22T15:43:03.501Z,49.80
2017-11-22T15:45:31.310Z,55.00
2017-11-22T15:47:59.152Z,52.50
2017-11-22T15:50:27.003Z,47.20
2017-11-22T15:52:54.840Z,48.20
2017-11-22T15:55:22.634Z,46.30
2017-11-22T15:57:50.445Z,47.00
2017-11-22T16:00:18.277Z,47.90
2017-11-22T16:02:46.032Z,49.40
2017-11-22T16:05:13.848Z,49.90
2017-11-22T16:07:41.627Z,46.50
2017-11-22T16:10:09.676Z,46.90
2017-11-22T16:12:37.693Z,47.70
2017-11-22T16:15:05.648Z,47.90
2017-11-22T16:17:33.526Z,48.50
2017-11-22T16:20:01.353Z,49.00
2017-11-22T16:22:29.244Z,49.30
2017-11-22T16:24:57.047Z,49.10
2017-11-22T16:27:24.865Z,49.50
2017-11-22T16:29:52.716Z,50.50
2017-11-22T16:32:20.629Z,52.50
2017-11-22T16:34:49.442Z,52.70
2017-11-22T16:37:17.302Z,49.90
2017-11-22T16:39:45.115Z,50.30
2017-11-22T16:42:13.698Z,46.20
2017-11-22T16:44:41.661Z,46.00
2017-11-22T16:47:10.395Z,46.30
2017-11-22T16:49:38.363Z,47.30
2017-11-22T16:52:06.319Z,48.50
2017-11-22T16:54:34.228Z,49.10
2017-11-22T16:57:02.071Z,49.50
2017-11-22T16:59:29.889Z,49.70
2017-11-22T17:01:57.695Z,49.70
2017-11-22T17:04:25.576Z,48.70
2017-11-22T17:06:53.389Z,48.90
2017-11-22T17:09:21.237Z,49.40
2017-11-22T17:11:49.009Z,49.60
2017-11-22T17:14:16.827Z,49.40
2017-11-22T17:16:44.625Z,49.50
2017-11-22T17:19:12.442Z,49.90
2017-11-22T17:21:40.277Z,50.30
2017-11-22T17:24:08.274Z,50.10
2017-11-22T17:26:36.111Z,50.40
2017-11-22T17:29:03.910Z,52.00
2017-11-22T17:31:31.671Z,50.50
2017-11-22T17:33:59.475Z,50.50
2017-11-22T17:36:27.277Z,50.50
2017-11-22T17:38:55.074Z,51.00
2017-11-22T17:41:24.003Z,51.20
2017-11-22T17:43:51.872Z,51.20
2017-11-22T17:46:19.855Z,50.70
2017-11-22T17:48:48.375Z,51.80
2017-11-22T17:51:16.329Z,51.70
2017-11-22T17:53:44.133Z,51.20
2017-11-22T17:56:11.962Z,51.30
2017-11-22T17:58:39.847Z,51.60
2017-11-22T18:01:07.730Z,51.60
2017-11-22T18:03:45.495Z,53.30
2017-11-22T18:06:13.356Z,51.70
2017-11-22T18:08:42.196Z,54.50
2017-11-22T18:24:56.312Z,51.20
2017-11-22T18:27:25.140Z,51.50
2017-11-22T18:29:53.783Z,51.80
2017-11-22T18:32:22.658Z,52.20
2017-11-22T18:34:50.605Z,52.70
2017-11-22T18:37:19.501Z,52.50
2017-11-22T18:39:50.410Z,52.50
2017-11-22T18:42:18.311Z,52.50
2017-11-22T18:44:46.171Z,52.60
2017-11-22T18:47:14.038Z,52.60
2017-11-22T18:49:41.932Z,52.80
2017-11-22T18:52:09.823Z,52.70
2017-11-22T18:54:37.762Z,52.40
2017-11-22T18:57:05.652Z,52.80
2017-11-22T18:59:33.517Z,53.00
2017-11-22T19:02:01.318Z,53.10
2017-11-22T19:04:30.239Z,53.10
2017-11-22T19:06:58.212Z,53.20
2017-11-22T19:09:26.866Z,53.20
2017-11-22T19:12:12.834Z,53.30
2017-11-22T19:14:40.662Z,53.50
2017-11-22T19:17:08.465Z,53.10
2017-11-22T19:19:36.229Z,53.30
2017-11-22T19:22:04.072Z,53.60
2017-11-22T19:24:31.931Z,53.70
2017-11-22T19:26:59.728Z,53.60
2017-11-22T19:29:27.629Z,53.40
2017-11-22T19:31:55.444Z,53.00
2017-11-22T19:34:23.256Z,53.30
2017-11-22T19:36:51.836Z,55.30
2017-11-22T19:39:19.612Z,55.20
2017-11-22T19:41:47.385Z,53.30
2017-11-22T19:44:16.003Z,53.40
2017-11-22T19:46:44.118Z,53.30
2017-11-22T19:49:11.904Z,53.60
2017-11-22T19:51:39.848Z,53.20
2017-11-22T19:54:41.178Z,53.60
2017-11-22T19:57:09.160Z,53.40
2017-11-22T19:59:38.276Z,52.80
2017-11-22T20:02:07.544Z,53.10
2017-11-22T20:04:36.504Z,52.90
2017-11-22T20:07:16.979Z,52.90
2017-11-22T20:09:45.193Z,53.20
2017-11-22T20:12:13.130Z,52.90
2017-11-22T20:14:41.058Z,52.70
2017-11-22T20:17:08.850Z,52.90
2017-11-22T20:19:36.691Z,53.00
2017-11-22T20:22:04.557Z,52.90
2017-11-22T20:24:32.410Z,53.00
2017-11-22T20:27:00.270Z,52.90
2017-11-22T20:29:28.898Z,52.40
2017-11-22T20:31:56.690Z,52.40
2017-11-22T20:34:25.768Z,52.10
2017-11-22T20:36:55.299Z,52.50
2017-11-22T20:39:23.159Z,52.10
2017-11-22T20:41:51.265Z,52.30
2017-11-22T20:44:19.095Z,52.00
2017-11-22T20:46:47.626Z,52.00
2017-11-22T20:49:16.192Z,52.00
2017-11-22T20:51:43.976Z,52.00
2017-11-22T20:54:11.841Z,51.90
2017-11-22T20:56:40.346Z,51.90
2017-11-22T20:59:08.256Z,51.90
2017-11-22T21:01:37.064Z,51.40
2017-11-22T21:04:04.916Z,51.40
2017-11-22T21:06:32.760Z,51.60
2017-11-22T21:09:00.568Z,51.50
2017-11-22T21:11:28.639Z,51.60
2017-11-22T21:13:56.465Z,51.60
2017-11-22T21:16:24.558Z,51.80
2017-11-22T21:18:52.736Z,51.80
2017-11-22T21:21:22.669Z,52.20
2017-11-22T21:23:51.296Z,52.00
2017-11-22T21:26:19.589Z,52.00
2017-11-22T21:28:47.441Z,52.00
2017-11-22T21:31:15.306Z,52.30
2017-11-22T21:33:46.393Z,52.20
2017-11-22T21:36:24.512Z,53.60
2017-11-22T21:38:52.650Z,52.20
2017-11-22T21:41:22.284Z,52.20
2017-11-22T21:43:50.044Z,52.20
2017-11-22T21:46:17.846Z,52.20
2017-11-22T21:48:45.708Z,52.50
2017-11-22T21:51:13.625Z,52.50
2017-11-22T21:53:41.438Z,52.50
2017-11-22T21:56:10.004Z,53.20
2017-11-22T21:58:37.850Z,53.10
2017-11-22T22:01:05.640Z,53.40
2017-11-22T22:03:33.448Z,53.50
2017-11-22T22:06:01.260Z,53.20
2017-11-22T22:08:28.992Z,53.20
2017-11-22T22:10:56.762Z,53.20
2017-11-22T22:13:24.518Z,53.10
2017-11-22T22:15:52.335Z,53.10
2017-11-22T22:18:20.089Z,53.50
2017-11-22T22:20:48.542Z,53.50
2017-11-22T22:23:16.281Z,53.60
2017-11-22T22:25:44.034Z,53.80
2017-11-22T22:28:12.735Z,53.50
2017-11-22T22:30:40.486Z,53.40
2017-11-22T22:33:18.088Z,53.40
2017-11-22T22:35:46.634Z,54.10
2017-11-22T22:38:14.524Z,54.00
2017-11-22T22:40:42.292Z,54.30
2017-11-22T22:43:10.105Z,54.40
2017-11-22T22:45:38.012Z,54.70
2017-11-22T22:48:05.751Z,54.50
2017-11-22T22:50:33.559Z,54.40
2017-11-22T22:53:01.357Z,54.60
2017-11-22T22:55:30.014Z,54.80
2017-11-22T22:57:57.816Z,54.80
2017-11-22T23:00:26.320Z,54.90
2017-11-22T23:02:54.060Z,55.00
2017-11-22T23:05:21.896Z,55.20
2017-11-22T23:07:49.704Z,55.30
2017-11-22T23:10:17.550Z,55.20
2017-11-22T23:12:45.309Z,55.30
2017-11-22T23:15:13.082Z,56.00
2017-11-22T23:17:40.893Z,55.30
2017-11-22T23:20:08.647Z,55.40
2017-11-22T23:22:36.488Z,55.50
2017-11-22T23:25:04.283Z,55.60
2017-11-22T23:27:32.159Z,55.90
2017-11-22T23:30:00.036Z,56.00
2017-11-22T23:32:27.775Z,55.90
2017-11-22T23:34:55.609Z,56.10
2017-11-22T23:37:23.503Z,56.30
2017-11-22T23:39:51.262Z,56.10
2017-11-22T23:42:19.013Z,56.20
2017-11-22T23:44:46.887Z,56.20
2017-11-22T23:47:14.715Z,56.30
2017-11-22T23:49:42.453Z,56.60
2017-11-22T23:52:11.097Z,56.50
2017-11-22T23:54:39.012Z,56.40
2017-11-22T23:57:06.994Z,56.50
2017-11-22T23:59:34.813Z,56.20
